Provincetown II — WYQ8368 — position and weather

sailwx.info

Track history (hours):
 
Tides and Currents Weather Stations Pressure Air Temp Water Temp Dewpoint Dewpoint Depression Visibility Wind Speed Wind Dir Waves Ship Positions

Provincetown II

Owner: BAY STATE MARINE CORP, BOSTON, MA. More information available from US FCC via Universal Licensing System and Coast Guard Vessel Documentation Center.

Last reported at 2016-Jun-29 00:33 UTC. Time now 2016-Jun-30 05:09 UTC.
Position N 42°20' W 071°00'.

Length 64 m; draft 2 m.

Type: Passenger vessel. MMSI: 376325010.

Date/timePositionNaut miles runAvg speedWind from/ knotsBaromVisibWave heightAir tempDewpointWater temp
2016-Jun-29 00:33N 42°20' W 071°00'3 2.9
2016-Jun-28 23:34N 42°22' W 071°03'1 1.2
2016-Jun-28 22:29N 42°21' W 071°02'1 0.8
2016-Jun-28 21:34N 42°21' W 071°02'1 0.7
2016-Jun-28 20:34N 42°21' W 071°02'0 0.2
2016-Jun-28 19:28N 42°21' W 071°02'0 0.0
2016-Jun-28 18:28N 42°21' W 071°02'0 0.0
2016-Jun-28 17:31N 42°21' W 071°02'0 0.0
2016-Jun-28 16:30N 42°21' W 071°02'0 0.0
2016-Jun-28 15:24N 42°21' W 071°02'4 4.5
2016-Jun-28 14:33N 42°20' W 070°58'0 0.4
2016-Jun-28 13:34N 42°20' W 070°58'  
2016-Jun-23 21:20N 42°21' W 071°02'4 4.9
2016-Jun-23 20:33N 42°20' W 070°58'0 0.0
2016-Jun-23 19:32N 42°20' W 070°58'0 0.0
2016-Jun-23 18:32N 42°20' W 070°58'0 0.0
2016-Jun-23 17:32N 42°20' W 070°58'0 0.0
2016-Jun-23 16:31N 42°20' W 070°58'0 0.0
2016-Jun-23 15:31N 42°20' W 070°58'0 0.0
2016-Jun-23 14:31N 42°20' W 070°58'0 0.4
2016-Jun-23 13:33N 42°20' W 070°58'4 0.2
2016-Jun-22 21:32N 42°21' W 071°02'4 3.9
2016-Jun-22 20:33N 42°20' W 070°58'0 0.0
2016-Jun-22 19:33N 42°20' W 070°58'0 0.0
2016-Jun-22 18:33N 42°20' W 070°58'0 0.0
2016-Jun-22 17:33N 42°20' W 070°58'0 0.0
2016-Jun-22 16:33N 42°20' W 070°58'0 0.0
2016-Jun-22 15:33N 42°20' W 070°58'0 0.0
2016-Jun-22 14:33N 42°20' W 070°58'0 0.3
2016-Jun-22 13:33N 42°20' W 070°58'  
2016-Jun-19 21:07N 42°21' W 071°02'3 5.5
2016-Jun-19 20:33N 42°20' W 070°58'1 1.3
2016-Jun-19 19:33N 42°20' W 070°57'5 4.6
2016-Jun-19 18:33N 42°22' W 071°03'1 0.7
2016-Jun-19 17:31N 42°21' W 071°02'  
Track history (hours):
 
Tides and Currents Weather Stations Pressure Air Temp Water Temp Dewpoint Dewpoint Depression Visibility Wind Speed Wind Dir Waves Ship Positions

Provincetown II

Owner: BAY STATE MARINE CORP, BOSTON, MA. More information available from US FCC via Universal Licensing System and Coast Guard Vessel Documentation Center.

Last reported at 2016-Jun-29 00:33 UTC. Time now 2016-Jun-30 05:09 UTC.
Position N 42°20' W 071°00'.

Length 64 m; draft 2 m.

Type: Passenger vessel. MMSI: 376325010.

Date/timePositionNaut miles runAvg speedWind from/ knotsBaromVisibWave heightAir tempDewpointWater temp
2016-Jun-29 00:33N 42°20' W 071°00'3 2.9
2016-Jun-28 23:34N 42°22' W 071°03'1 1.2
2016-Jun-28 22:29N 42°21' W 071°02'1 0.8
2016-Jun-28 21:34N 42°21' W 071°02'1 0.7
2016-Jun-28 20:34N 42°21' W 071°02'0 0.2
2016-Jun-28 19:28N 42°21' W 071°02'0 0.0
2016-Jun-28 18:28N 42°21' W 071°02'0 0.0
2016-Jun-28 17:31N 42°21' W 071°02'0 0.0
2016-Jun-28 16:30N 42°21' W 071°02'0 0.0
2016-Jun-28 15:24N 42°21' W 071°02'4 4.5
2016-Jun-28 14:33N 42°20' W 070°58'0 0.4
2016-Jun-28 13:34N 42°20' W 070°58'  
2016-Jun-23 21:20N 42°21' W 071°02'4 4.9
2016-Jun-23 20:33N 42°20' W 070°58'0 0.0
2016-Jun-23 19:32N 42°20' W 070°58'0 0.0
2016-Jun-23 18:32N 42°20' W 070°58'0 0.0
2016-Jun-23 17:32N 42°20' W 070°58'0 0.0
2016-Jun-23 16:31N 42°20' W 070°58'0 0.0
2016-Jun-23 15:31N 42°20' W 070°58'0 0.0
2016-Jun-23 14:31N 42°20' W 070°58'0 0.4
2016-Jun-23 13:33N 42°20' W 070°58'4 0.2
2016-Jun-22 21:32N 42°21' W 071°02'4 3.9
2016-Jun-22 20:33N 42°20' W 070°58'0 0.0
2016-Jun-22 19:33N 42°20' W 070°58'0 0.0
2016-Jun-22 18:33N 42°20' W 070°58'0 0.0
2016-Jun-22 17:33N 42°20' W 070°58'0 0.0
2016-Jun-22 16:33N 42°20' W 070°58'0 0.0
2016-Jun-22 15:33N 42°20' W 070°58'0 0.0
2016-Jun-22 14:33N 42°20' W 070°58'0 0.3
2016-Jun-22 13:33N 42°20' W 070°58'  
2016-Jun-19 21:07N 42°21' W 071°02'3 5.5
2016-Jun-19 20:33N 42°20' W 070°58'1 1.3
2016-Jun-19 19:33N 42°20' W 070°57'5 4.6
2016-Jun-19 18:33N 42°22' W 071°03'1 0.7
2016-Jun-19 17:31N 42°21' W 071°02'  

Dump ship's entire track history